Time;durP1;ratioP1;P1;durP2;ratioP2;P2;SDS_P1;SDS_P2;PMS_P1;PMS_P2;Temp;Humidity;BMP_temperature;BMP_pressure;BME280_temperature;BME280_humidity;BME280_pressure;Samples;Min_cycle;Max_cycle;Signal;HPM_P1;HPM_P2
2023/12/11 00:01:49;;;;;;;6.78;1.73;;;;;;;4.70;100.00;98874.78;4999867;28;20046;-80
2023/12/11 00:04:17;;;;;;;4.80;1.83;;;;;;;4.70;100.00;98872.91;4999916;28;20072;-80
2023/12/11 00:06:50;;;;;;;17.13;1.65;;;;;;;4.68;100.00;98874.25;4996777;28;20058;-80
2023/12/11 00:09:19;;;;;;;6.15;2.45;;;;;;;4.66;100.00;98871.84;5000103;28;20085;-80
2023/12/11 00:11:53;;;;;;;2.05;1.40;;;;;;;4.66;100.00;98871.06;4999733;28;20058;-80
2023/12/11 00:14:22;;;;;;;2.63;1.50;;;;;;;4.64;100.00;98871.34;4999021;28;20061;-80
2023/12/11 00:16:55;;;;;;;7.68;1.65;;;;;;;4.66;100.00;98866.47;4994797;28;20054;-80
2023/12/11 00:19:24;;;;;;;2.90;1.33;;;;;;;4.65;100.00;98870.25;4996887;28;20058;-80
2023/12/11 00:21:57;;;;;;;2.83;1.38;;;;;;;4.65;100.00;98870.25;4998286;28;20058;-81
2023/12/11 00:24:25;;;;;;;4.22;1.38;;;;;;;4.66;100.00;98873.75;5011281;28;20056;-80
2023/12/11 00:27:00;;;;;;;3.90;1.15;;;;;;;4.67;100.00;98869.94;4998304;28;20058;-80
2023/12/11 00:29:33;;;;;;;3.63;1.17;;;;;;;4.63;100.00;98866.22;5001280;28;20049;-80
2023/12/11 00:32:07;;;;;;;3.85;1.73;;;;;;;4.58;100.00;98859.00;4999267;28;20845;-80
2023/12/11 00:34:40;;;;;;;2.97;1.35;;;;;;;4.64;100.00;98870.53;4997022;28;20057;-80
2023/12/11 00:37:14;;;;;;;2.67;1.15;;;;;;;4.62;100.00;98862.72;4994329;28;20058;-80
2023/12/11 00:39:42;;;;;;;3.65;1.40;;;;;;;4.63;100.00;98866.22;4995122;28;20093;-80
2023/12/11 00:42:12;;;;;;;1.58;1.20;;;;;;;4.63;100.00;98855.44;4996396;28;20700;-80
2023/12/11 00:44:40;;;;;;;4.85;1.25;;;;;;;4.66;100.00;98855.69;4999662;28;20518;-80
2023/12/11 00:47:10;;;;;;;6.22;1.83;;;;;;;4.57;100.00;98854.69;5000527;28;20048;-80
2023/12/11 00:49:44;;;;;;;1.70;1.10;;;;;;;4.57;100.00;98852.00;4998041;28;20078;-80
2023/12/11 00:52:12;;;;;;;3.40;1.35;;;;;;;4.57;100.00;98855.50;5002264;28;20058;-80
2023/12/11 00:54:46;;;;;;;2.30;1.40;;;;;;;4.54;100.00;98850.72;4994049;28;20057;-80
2023/12/11 00:57:22;;;;;;;2.58;1.63;;;;;;;4.46;100.00;98832.47;4999212;28;20053;-80
2023/12/11 00:59:55;;;;;;;2.67;1.40;;;;;;;4.47;100.00;98827.88;4998501;28;20054;-80
2023/12/11 01:02:28;;;;;;;3.10;1.38;;;;;;;4.53;100.00;98829.41;4998932;28;20060;-80
2023/12/11 01:05:02;;;;;;;1.23;1.13;;;;;;;4.59;100.00;98831.78;5011337;28;24419;-80
2023/12/11 01:07:35;;;;;;;4.32;1.50;;;;;;;4.49;100.00;98826.50;4999082;28;20498;-80
2023/12/11 01:10:10;;;;;;;4.40;1.95;;;;;;;4.50;100.00;98827.28;4996813;28;20061;-80
2023/12/11 01:12:44;;;;;;;3.33;1.15;;;;;;;4.48;100.00;98829.47;4994930;28;20054;-80
2023/12/11 01:15:13;;;;;;;1.45;1.15;;;;;;;4.51;100.00;98823.53;4997749;28;20414;-80
2023/12/11 01:17:46;;;;;;;3.33;1.70;;;;;;;4.53;100.00;98826.72;4996423;28;20050;-80
2023/12/11 01:20:19;;;;;;;1.50;1.20;;;;;;;4.50;100.00;98824.59;4995501;28;20045;-80
2023/12/11 01:22:48;;;;;;;3.10;1.52;;;;;;;4.57;100.00;98830.44;5004291;28;20925;-80
2023/12/11 01:25:21;;;;;;;1.92;1.35;;;;;;;4.55;100.00;98828.03;4997320;28;20046;-81
2023/12/11 01:27:51;;;;;;;2.92;1.42;;;;;;;4.58;100.00;98813.22;4997637;28;20046;-80
2023/12/11 01:30:24;;;;;;;1.95;1.20;;;;;;;4.54;100.00;98810.28;4998902;28;20050;-80
2023/12/11 01:32:57;;;;;;;2.22;1.45;;;;;;;4.51;100.00;98810.06;5017112;28;20050;-80
2023/12/11 01:35:33;;;;;;;1.73;1.15;;;;;;;4.53;100.00;98810.56;4999164;28;20046;-80
2023/12/11 01:38:07;;;;;;;2.88;1.30;;;;;;;4.48;100.00;98813.31;4999611;28;20045;-79
2023/12/11 01:40:40;;;;;;;1.73;0.98;;;;;;;4.51;100.00;98820.81;5001238;28;20513;-80
2023/12/11 01:43:16;;;;;;;1.20;1.08;;;;;;;4.60;100.00;98819.91;5000826;28;20065;-80
2023/12/11 01:45:59;;;;;;;1.40;1.30;;;;;;;4.53;100.00;98826.72;4999089;28;20069;-80
2023/12/11 01:48:33;;;;;;;1.30;1.05;;;;;;;4.63;100.00;98841.97;4999062;28;20057;-80
2023/12/11 01:51:02;;;;;;;3.33;1.23;;;;;;;4.63;100.00;98831.19;5003095;28;20622;-80
2023/12/11 01:53:36;;;;;;;1.10;1.00;;;;;;;4.59;100.00;98826.38;5004514;28;20495;-80
2023/12/11 01:56:10;;;;;;;9.65;1.60;;;;;;;4.59;100.00;98825.59;5018202;28;20845;-81
2023/12/11 01:58:46;;;;;;;2.10;1.08;;;;;;;4.60;100.00;98827.22;5002939;28;20053;-80
2023/12/11 02:01:15;;;;;;;1.40;1.30;;;;;;;4.59;100.00;98820.19;5003743;28;20051;-80
2023/12/11 02:03:50;;;;;;;1.10;1.00;;;;;;;4.63;100.00;98818.53;5002073;28;20065;-80
2023/12/11 02:06:18;;;;;;;2.13;1.50;;;;;;;4.67;100.00;98816.06;5001249;28;20057;-80
2023/12/11 02:08:47;;;;;;;1.40;1.20;;;;;;;4.59;100.00;98822.91;5013380;28;20088;-80
2023/12/11 02:11:21;;;;;;;2.40;1.10;;;;;;;4.67;100.00;98824.97;5000244;28;20050;-79
2023/12/11 02:13:51;;;;;;;1.38;1.00;;;;;;;4.68;100.00;98814.97;4996686;28;20050;-79
2023/12/11 02:16:19;;;;;;;0.90;0.90;;;;;;;4.69;100.00;98814.69;5002222;28;20064;-80
2023/12/11 02:18:47;;;;;;;1.38;1.10;;;;;;;4.68;100.00;98812.28;5002038;28;20822;-80
2023/12/11 02:21:16;;;;;;;1.40;1.05;;;;;;;4.70;100.00;98807.44;5001394;28;20061;-81
2023/12/11 02:23:55;;;;;;;2.55;1.60;;;;;;;4.71;100.00;98812.53;4996531;28;20042;-80
2023/12/11 02:26:30;;;;;;;1.33;1.10;;;;;;;4.67;100.00;98814.19;4998072;28;20046;-80
2023/12/11 02:29:03;;;;;;;1.92;0.95;;;;;;;4.68;100.00;98809.59;4996502;28;20058;-80
2023/12/11 02:31:37;;;;;;;3.20;1.40;;;;;;;4.68;100.00;98813.09;5000037;28;20053;-80
2023/12/11 02:34:10;;;;;;;1.75;1.30;;;;;;;4.69;100.00;98817.38;4996791;28;20061;-80
2023/12/11 02:36:39;;;;;;;1.77;1.52;;;;;;;4.70;100.00;98810.91;4995874;28;20061;-80
2023/12/11 02:39:12;;;;;;;6.57;2.05;;;;;;;4.66;100.00;98809.09;5000513;28;20045;-80
2023/12/11 02:41:41;;;;;;;2.08;1.42;;;;;;;4.70;100.00;98810.13;4996315;28;20042;-81
2023/12/11 02:44:15;;;;;;;1.73;1.23;;;;;;;4.68;100.00;98807.72;5002123;28;20057;-80
2023/12/11 02:46:43;;;;;;;4.13;1.45;;;;;;;4.67;100.00;98806.09;5001782;28;20054;-80
2023/12/11 02:49:16;;;;;;;1.00;0.90;;;;;;;4.73;100.00;98804.16;5013945;28;20487;-80
2023/12/11 02:51:49;;;;;;;1.48;1.30;;;;;;;4.72;100.00;98803.38;4994850;28;20054;-80
2023/12/11 02:54:18;;;;;;;0.98;0.98;;;;;;;4.75;100.00;98805.47;4996090;28;20468;-80
2023/12/11 02:56:53;;;;;;;1.85;1.17;;;;;;;4.75;100.00;98810.03;5001933;28;20069;-80
2023/12/11 02:59:21;;;;;;;3.17;1.88;;;;;;;4.75;100.00;98807.34;5001251;28;20050;-80
2023/12/11 03:01:50;;;;;;;1.48;1.20;;;;;;;4.80;100.00;98803.81;5003223;28;20042;-80
2023/12/11 03:04:23;;;;;;;1.38;1.27;;;;;;;4.90;100.00;98796.41;5000040;28;20068;-80
2023/12/11 03:06:52;;;;;;;1.55;1.15;;;;;;;5.00;100.00;98800.88;4999655;28;20057;-80
2023/12/11 03:09:25;;;;;;;1.50;1.40;;;;;;;5.04;100.00;98793.81;5020736;28;20061;-80
2023/12/11 03:12:00;;;;;;;2.10;1.33;;;;;;;5.22;100.00;98786.84;5002238;28;20053;-80
2023/12/11 03:14:28;;;;;;;1.58;1.40;;;;;;;5.23;100.00;98801.09;5001269;28;20065;-80
2023/12/11 03:16:56;;;;;;;3.35;1.58;;;;;;;5.34;100.00;98791.78;4999399;28;20064;-80
2023/12/11 03:19:30;;;;;;;4.32;1.85;;;;;;;5.38;100.00;98795.50;4998342;28;20054;-80
2023/12/11 03:21:58;;;;;;;4.15;2.05;;;;;;;5.45;100.00;98795.13;4998319;28;20065;-80
2023/12/11 03:24:26;;;;;;;4.03;1.95;;;;;;;5.42;100.00;98793.03;5003158;28;20407;-80
2023/12/11 03:27:01;;;;;;;1.85;1.65;;;;;;;5.52;100.00;98792.06;5002121;28;20054;-80
2023/12/11 03:29:35;;;;;;;3.08;1.90;;;;;;;5.50;100.00;98792.38;5000434;28;20050;-80
2023/12/11 03:32:08;;;;;;;3.83;2.30;;;;;;;5.57;100.00;98802.81;5000915;28;20505;-79
2023/12/11 03:34:36;;;;;;;2.13;1.85;;;;;;;5.68;100.00;98811.53;5002809;28;20054;-80
2023/12/11 03:37:11;;;;;;;2.00;1.75;;;;;;;5.70;100.00;98809.34;5001788;28;20046;-80
2023/12/11 03:39:44;;;;;;;2.03;1.75;;;;;;;5.72;100.00;98807.97;4999602;28;20050;-80
2023/12/11 03:42:19;;;;;;;4.40;2.15;;;;;;;5.74;100.00;98811.16;5014875;28;20065;-80
2023/12/11 03:44:54;;;;;;;2.55;1.98;;;;;;;5.83;100.00;98811.31;4996507;28;20058;-80
2023/12/11 03:47:27;;;;;;;6.30;2.70;;;;;;;5.84;100.00;98812.91;5000780;28;20058;-80
2023/12/11 03:50:00;;;;;;;4.05;2.50;;;;;;;5.83;100.00;98816.69;4998107;28;20490;-80
2023/12/11 03:52:34;;;;;;;6.35;2.03;;;;;;;5.90;100.00;98819.03;5001473;28;20061;-79
2023/12/11 03:55:02;;;;;;;3.78;2.25;;;;;;;5.89;100.00;98809.31;5001284;28;20054;-80
2023/12/11 03:57:37;;;;;;;2.92;2.10;;;;;;;5.92;100.00;98806.03;5001632;28;20045;-80
2023/12/11 04:00:11;;;;;;;4.75;2.50;;;;;;;5.86;100.00;98821.50;5000228;28;20053;-80
2023/12/11 04:02:45;;;;;;;7.38;2.50;;;;;;;5.95;100.00;98818.94;5011761;28;20082;-80
2023/12/11 04:05:18;;;;;;;3.33;2.00;;;;;;;5.86;100.00;98816.09;5003154;28;20506;-80
2023/12/11 04:07:46;;;;;;;2.72;2.25;;;;;;;5.74;100.00;98818.47;5003911;28;20050;-80
2023/12/11 04:10:20;;;;;;;3.72;2.30;;;;;;;5.84;100.00;98820.19;5004882;28;20054;-80
2023/12/11 04:12:54;;;;;;;6.53;2.30;;;;;;;5.77;100.00;98824.09;4996798;28;20065;-80
2023/12/11 04:15:28;;;;;;;2.95;1.77;;;;;;;5.73;100.00;98820.38;4995226;28;20057;-80
2023/12/11 04:18:01;;;;;;;3.45;2.00;;;;;;;5.82;100.00;98822.41;4999844;28;20054;-80
2023/12/11 04:20:35;;;;;;;2.80;1.85;;;;;;;5.87;100.00;98819.59;4997687;28;20054;-80
2023/12/11 04:23:03;;;;;;;2.63;1.92;;;;;;;5.90;100.00;98822.53;4993327;28;20057;-80
2023/12/11 04:25:31;;;;;;;8.50;2.72;;;;;;;5.96;100.00;98826.72;4995849;28;20046;-80
2023/12/11 04:28:01;;;;;;;3.97;2.20;;;;;;;6.05;100.00;98828.78;4998214;28;20520;-80
2023/12/11 04:30:35;;;;;;;3.50;2.30;;;;;;;6.09;100.00;98829.81;4995825;28;20050;-80
2023/12/11 04:33:03;;;;;;;5.00;2.20;;;;;;;6.08;100.00;98830.94;5012310;28;20054;-80
2023/12/11 04:35:37;;;;;;;3.42;2.40;;;;;;;6.15;100.00;98822.44;5001628;28;20042;-80
2023/12/11 04:38:05;;;;;;;5.63;2.38;;;;;;;6.12;100.00;98832.72;4998089;28;20050;-80
2023/12/11 04:40:33;;;;;;;10.32;2.80;;;;;;;6.23;100.00;98830.66;5008413;28;20077;-80
2023/12/11 04:43:03;;;;;;;5.97;2.35;;;;;;;6.30;100.00;98828.38;5000661;28;20117;-81
2023/12/11 04:45:32;;;;;;;7.93;2.42;;;;;;;6.25;100.00;98841.16;4995652;28;20065;-80
2023/12/11 04:48:05;;;;;;;3.85;2.10;;;;;;;6.28;100.00;98833.28;4995879;28;20066;-80
2023/12/11 04:50:39;;;;;;;5.20;2.25;;;;;;;6.39;100.00;98831.19;4997825;28;20042;-80
2023/12/11 04:53:07;;;;;;;4.15;2.17;;;;;;;6.26;100.00;98821.16;5015112;28;20054;-80
2023/12/11 04:55:36;;;;;;;1.90;1.67;;;;;;;6.13;100.00;98833.53;4998948;28;20050;-79
2023/12/11 04:58:06;;;;;;;5.72;2.53;;;;;;;6.18;100.00;98830.75;4999297;28;20695;-80
2023/12/11 05:00:39;;;;;;;1.55;1.45;;;;;;;6.18;100.00;98832.66;4996875;28;20050;-80
2023/12/11 05:03:12;;;;;;;5.75;1.88;;;;;;;6.17;100.00;98821.03;4994995;28;20049;-80
2023/12/11 05:05:40;;;;;;;3.60;1.88;;;;;;;6.27;100.00;98834.38;4997546;28;20060;-80
2023/12/11 05:08:14;;;;;;;7.28;2.30;;;;;;;6.30;100.00;98835.69;4998541;28;20050;-80
2023/12/11 05:10:42;;;;;;;4.65;1.75;;;;;;;6.33;100.00;98832.38;4996381;28;20053;-80
2023/12/11 05:13:17;;;;;;;4.00;1.77;;;;;;;6.33;100.00;98826.19;4998270;28;20062;-80
2023/12/11 05:15:50;;;;;;;8.45;1.88;;;;;;;6.30;100.00;98831.06;4994893;28;20042;-80
2023/12/11 05:18:24;;;;;;;3.90;2.00;;;;;;;6.42;100.00;98840.59;4995283;28;20058;-80
2023/12/11 05:20:52;;;;;;;3.28;1.42;;;;;;;6.35;100.00;98838.28;4995345;28;20406;-80
2023/12/11 05:23:25;;;;;;;4.35;2.25;;;;;;;6.41;100.00;98833.63;5000182;28;20054;-81
2023/12/11 05:25:54;;;;;;;5.95;1.88;;;;;;;6.42;100.00;98833.31;5003600;28;20058;-80
2023/12/11 05:28:29;;;;;;;6.85;2.25;;;;;;;6.38;100.00;98840.41;5007899;28;20064;-80
2023/12/11 05:31:02;;;;;;;8.65;2.75;;;;;;;6.44;100.00;98828.41;5006497;28;20281;-81
2023/12/11 05:33:30;;;;;;;3.65;1.90;;;;;;;6.40;100.00;98832.78;5003852;28;20050;-80
2023/12/11 05:36:04;;;;;;;5.47;1.77;;;;;;;6.48;100.00;98825.91;5018682;28;20050;-80
2023/12/11 05:38:38;;;;;;;3.60;2.00;;;;;;;6.46;100.00;98833.50;5001102;28;20058;-80
2023/12/11 05:41:11;;;;;;;1.90;1.48;;;;;;;6.45;100.00;98831.91;5005577;28;21256;-80
2023/12/11 05:43:47;;;;;;;6.75;2.15;;;;;;;6.41;100.00;98831.69;5020388;28;20725;-80
2023/12/11 05:46:20;;;;;;;9.75;2.63;;;;;;;6.46;100.00;98828.91;5002671;28;20054;-80
2023/12/11 05:48:54;;;;;;;5.13;2.47;;;;;;;6.56;100.00;98829.81;5005108;28;20069;-80
2023/12/11 05:51:28;;;;;;;5.78;2.08;;;;;;;6.41;100.00;98834.41;5016123;28;20058;-80
2023/12/11 05:54:01;;;;;;;5.45;1.73;;;;;;;6.42;100.00;98840.59;5001417;28;20054;-81
2023/12/11 05:56:34;;;;;;;5.32;2.38;;;;;;;6.43;100.00;98840.28;5000992;28;20061;-80
2023/12/11 05:59:09;;;;;;;3.22;2.08;;;;;;;6.47;100.00;98837.81;5016296;28;20057;-80
2023/12/11 06:01:43;;;;;;;4.80;1.92;;;;;;;6.40;100.00;98834.72;4997608;28;20435;-80
2023/12/11 06:04:11;;;;;;;6.97;2.20;;;;;;;6.41;100.00;98833.63;4994342;28;20058;-81
2023/12/11 06:06:39;;;;;;;3.72;1.73;;;;;;;6.50;100.00;98836.41;4999707;28;20046;-80
2023/12/11 06:09:08;;;;;;;6.28;2.70;;;;;;;6.46;100.00;98828.09;5011317;28;20687;-80
2023/12/11 06:11:41;;;;;;;5.43;2.42;;;;;;;6.51;100.00;98829.94;4998894;28;20061;-80
2023/12/11 06:14:11;;;;;;;5.45;2.08;;;;;;;6.38;100.00;98826.06;5006322;28;20623;-80
2023/12/11 06:16:44;;;;;;;4.20;2.03;;;;;;;6.32;100.00;98821.88;4997783;28;20501;-80
2023/12/11 06:19:17;;;;;;;5.03;2.63;;;;;;;6.24;100.00;98820.66;5001662;28;20054;-80
2023/12/11 06:21:45;;;;;;;5.85;2.22;;;;;;;6.26;100.00;98827.38;4999921;28;20050;-80
2023/12/11 06:24:19;;;;;;;6.50;2.65;;;;;;;6.29;100.00;98826.75;5000686;28;20058;-80
2023/12/11 06:26:52;;;;;;;7.90;2.40;;;;;;;6.34;100.00;98823.19;5004486;28;20049;-80
2023/12/11 06:29:27;;;;;;;10.02;2.78;;;;;;;6.50;100.00;98825.59;4998036;28;20061;-80
2023/12/11 06:32:00;;;;;;;4.70;2.65;;;;;;;6.42;100.00;98827.09;4999372;28;20058;-81
2023/12/11 06:34:34;;;;;;;7.05;2.75;;;;;;;6.41;100.00;98823.59;4999147;28;20086;-80
2023/12/11 06:37:07;;;;;;;12.30;3.63;;;;;;;6.56;100.00;98813.59;4999453;28;20050;-80
2023/12/11 06:39:40;;;;;;;4.75;2.28;;;;;;;6.50;100.00;98822.91;4999045;28;20058;-80
2023/12/11 06:42:09;;;;;;;3.28;1.92;;;;;;;6.50;100.00;98821.00;5000010;28;20054;-80
2023/12/11 06:44:44;;;;;;;6.38;2.35;;;;;;;6.57;100.00;98823.31;4999519;28;20050;-80
2023/12/11 06:47:17;;;;;;;1.83;1.50;;;;;;;6.55;100.00;98820.91;5016693;28;20430;-81
2023/12/11 06:49:46;;;;;;;5.32;2.38;;;;;;;6.61;100.00;98819.69;5002543;28;20049;-80
2023/12/11 06:52:15;;;;;;;11.65;3.20;;;;;;;6.61;100.00;98830.50;4997979;28;20058;-80
2023/12/11 06:54:43;;;;;;;4.15;1.80;;;;;;;6.59;100.00;98816.50;4998633;28;20626;-81
2023/12/11 06:57:12;;;;;;;7.28;2.30;;;;;;;6.56;100.00;98833.34;4999761;28;20058;-83
2023/12/11 06:59:40;;;;;;;6.00;2.30;;;;;;;6.55;100.00;98818.22;4997846;28;20054;-83
2023/12/11 07:02:10;;;;;;;8.35;2.78;;;;;;;6.54;100.00;98824.72;5002902;28;20062;-80
2023/12/11 07:04:41;;;;;;;9.32;2.88;;;;;;;6.50;100.00;98826.41;4997942;28;20049;-80
2023/12/11 07:07:15;;;;;;;5.82;2.10;;;;;;;6.51;100.00;98824.53;5000547;28;20054;-81
2023/12/11 07:09:48;;;;;;;9.15;2.75;;;;;;;6.50;100.00;98823.69;5000350;28;20054;-80
2023/12/11 07:12:21;;;;;;;8.57;2.65;;;;;;;6.51;100.00;98814.50;5000934;28;20038;-81
2023/12/11 07:14:55;;;;;;;11.25;3.40;;;;;;;6.53;100.00;98815.03;4998688;28;20050;-80
2023/12/11 07:17:29;;;;;;;3.75;2.00;;;;;;;6.55;100.00;98807.41;5000076;28;20068;-80
2023/12/11 07:19:58;;;;;;;4.05;2.50;;;;;;;6.52;100.00;98818.81;4994900;28;20054;-81
2023/12/11 07:22:34;;;;;;;8.55;2.80;;;;;;;6.53;100.00;98814.19;5002023;28;20054;-80
2023/12/11 07:25:08;;;;;;;14.82;3.53;;;;;;;6.56;100.00;98819.00;5004143;28;20080;-81
2023/12/11 07:27:43;;;;;;;7.13;3.42;;;;;;;6.52;100.00;98824.22;5001329;28;20485;-80
2023/12/11 07:30:16;;;;;;;10.35;3.05;;;;;;;6.47;100.00;98817.00;5004829;28;20514;-81
2023/12/11 07:32:47;;;;;;;9.93;3.85;;;;;;;6.55;100.00;98814.72;4998687;28;20050;-81
2023/12/11 07:35:15;;;;;;;6.47;2.40;;;;;;;6.51;100.00;98813.72;5000890;28;20050;-80
2023/12/11 07:37:48;;;;;;;9.55;3.55;;;;;;;6.52;100.00;98813.41;4999477;28;20096;-81
2023/12/11 07:40:17;;;;;;;4.75;2.53;;;;;;;6.46;100.00;98820.81;5004625;28;20058;-80
2023/12/11 07:42:45;;;;;;;4.30;2.42;;;;;;;6.45;100.00;98813.78;5000835;28;20057;-81
2023/12/11 07:45:19;;;;;;;5.68;2.60;;;;;;;6.57;100.00;98816.03;5001400;28;20058;-81
2023/12/11 07:47:53;;;;;;;8.68;4.20;;;;;;;6.53;100.00;98811.50;5005032;28;20057;-80
2023/12/11 07:50:22;;;;;;;5.63;3.00;;;;;;;6.50;100.00;98814.81;5001774;28;20043;-80
2023/12/11 07:52:55;;;;;;;14.02;4.70;;;;;;;6.47;100.00;98817.00;5014006;28;20428;-80
2023/12/11 07:55:29;;;;;;;13.85;4.60;;;;;;;6.47;100.00;98819.69;5004512;28;20445;-82
2023/12/11 07:58:04;;;;;;;16.73;5.15;;;;;;;6.48;100.00;98820.50;5002205;28;20450;-81
2023/12/11 08:00:32;;;;;;;15.73;4.57;;;;;;;6.49;100.00;98822.13;5004540;28;20433;-80
2023/12/11 08:03:04;;;;;;;18.83;4.80;;;;;;;6.53;100.00;98825.81;4993874;28;20420;-80
2023/12/11 08:05:37;;;;;;;12.40;3.78;;;;;;;6.51;100.00;98816.41;4999095;28;20442;-79
2023/12/11 08:08:10;;;;;;;22.77;5.13;;;;;;;6.49;100.00;98810.50;4995798;28;20428;-79
2023/12/11 08:10:43;;;;;;;17.38;4.53;;;;;;;6.54;100.00;98815.81;4994424;28;20440;-80
2023/12/11 08:13:17;;;;;;;17.50;4.35;;;;;;;6.49;100.00;98814.00;4991816;28;20460;-79
2023/12/11 08:15:50;;;;;;;18.00;4.40;;;;;;;6.47;100.00;98816.19;4992700;28;20445;-79
2023/12/11 08:18:26;;;;;;;22.23;5.10;;;;;;;6.56;100.00;98806.31;4978723;28;20434;-79
2023/12/11 08:20:59;;;;;;;17.88;4.25;;;;;;;6.56;100.00;98819.81;4968457;28;20433;-80
2023/12/11 08:23:27;;;;;;;19.42;4.53;;;;;;;6.53;100.00;98806.91;4983056;28;20442;-80
2023/12/11 08:26:00;;;;;;;24.52;4.68;;;;;;;6.54;100.00;98805.78;4978971;28;20425;-80
2023/12/11 08:28:34;;;;;;;20.58;4.70;;;;;;;6.60;100.00;98801.91;4981898;28;20436;-79
2023/12/11 08:31:03;;;;;;;17.47;4.30;;;;;;;6.65;100.00;98798.28;4973703;28;20432;-80
2023/12/11 08:33:37;;;;;;;19.67;3.88;;;;;;;6.64;100.00;98800.22;4975258;28;20462;-80
2023/12/11 08:36:11;;;;;;;20.90;4.25;;;;;;;6.66;100.00;98802.59;4975061;28;20432;-80
2023/12/11 08:38:44;;;;;;;19.15;4.13;;;;;;;6.67;100.00;98798.81;4974836;28;20949;-80
2023/12/11 08:41:13;;;;;;;18.60;4.15;;;;;;;6.75;100.00;98800.00;4975148;28;20440;-79
2023/12/11 08:43:46;;;;;;;21.52;4.72;;;;;;;6.64;100.00;98802.91;4983157;28;20429;-80
2023/12/11 08:46:15;;;;;;;20.33;4.32;;;;;;;6.64;100.00;98808.31;4971811;28;20433;-80
2023/12/11 08:48:50;;;;;;;22.23;4.70;;;;;;;6.62;100.00;98794.28;4968654;28;20440;-80
2023/12/11 08:54:31;;;;;;;20.55;4.25;;;;;;;6.75;100.00;98798.09;4958791;28;20431;-80
2023/12/11 08:57:08;;;;;;;19.38;4.30;;;;;;;6.96;100.00;98795.78;4983449;28;21904;-80
2023/12/11 08:59:41;;;;;;;16.55;3.97;;;;;;;6.95;100.00;98798.78;4973146;28;20460;-80
2023/12/11 09:02:15;;;;;;;21.95;4.25;;;;;;;6.94;100.00;98797.19;4974020;28;20444;-81
2023/12/11 09:04:45;;;;;;;19.08;4.05;;;;;;;7.05;100.00;98795.88;4975025;28;21080;-80
2023/12/11 09:07:18;;;;;;;21.75;3.95;;;;;;;7.19;100.00;98790.44;4974768;28;20427;-81
2023/12/11 09:09:47;;;;;;;18.88;3.70;;;;;;;7.30;100.00;98791.81;4979903;28;20431;-81
2023/12/11 09:12:21;;;;;;;17.27;3.70;;;;;;;7.35;100.00;98785.50;4987968;28;20440;-81
2023/12/11 09:14:54;;;;;;;20.08;4.30;;;;;;;7.37;100.00;98793.31;4977483;28;20438;-83
2023/12/11 09:17:31;;;;;;;17.17;3.95;;;;;;;7.50;100.00;98789.78;4977401;28;21129;-81
2023/12/11 09:20:09;;;;;;;18.27;3.65;;;;;;;7.47;100.00;98793.06;4974343;28;20447;-81
2023/12/11 09:22:42;;;;;;;15.25;3.65;;;;;;;7.55;100.00;98789.63;4969513;28;20447;-79
2023/12/11 09:25:11;;;;;;;17.20;3.50;;;;;;;7.53;100.00;98791.88;4981430;28;20909;-81
2023/12/11 09:27:39;;;;;;;17.90;4.40;;;;;;;7.45;100.00;98796.09;4985996;28;20432;-80
2023/12/11 09:30:14;;;;;;;16.17;4.38;;;;;;;7.43;100.00;98798.31;4984547;28;20436;-81
2023/12/11 09:32:43;;;;;;;20.38;4.43;;;;;;;7.37;100.00;98794.09;4978446;28;20436;-81
2023/12/11 09:35:18;;;;;;;23.25;4.70;;;;;;;7.32;100.00;98788.81;4983221;28;20437;-80
2023/12/11 09:37:51;;;;;;;20.60;4.30;;;;;;;7.34;100.00;98791.22;4979099;28;20435;-80
2023/12/11 09:40:25;;;;;;;19.40;4.40;;;;;;;7.45;100.00;98789.88;4983955;28;20432;-80
2023/12/11 09:42:53;;;;;;;20.73;4.43;;;;;;;7.45;100.00;98792.59;4983612;28;20439;-81
2023/12/11 09:45:27;;;;;;;18.92;4.38;;;;;;;7.44;100.00;98789.09;4983971;28;20430;-80
2023/12/11 09:47:58;;;;;;;17.73;4.22;;;;;;;7.49;100.00;98799.78;5004972;28;20427;-81
2023/12/11 09:50:37;;;;;;;16.60;4.10;;;;;;;7.51;100.00;98796.75;4981560;28;20433;-81
2023/12/11 09:53:10;;;;;;;21.92;4.10;;;;;;;7.46;100.00;98794.97;4986748;28;20475;-83
2023/12/11 09:55:44;;;;;;;16.27;3.50;;;;;;;7.45;100.00;98804.19;4983856;28;20429;-81
2023/12/11 09:58:21;;;;;;;20.10;3.70;;;;;;;7.52;100.00;98801.06;4982719;28;20433;-80
2023/12/11 10:01:00;;;;;;;23.60;4.50;;;;;;;7.49;100.00;98799.78;4985594;28;20444;-81
2023/12/11 10:03:34;;;;;;;14.30;3.40;;;;;;;7.53;100.00;98797.28;4972400;28;21983;-80
2023/12/11 10:06:09;;;;;;;17.95;3.85;;;;;;;7.57;100.00;98798.25;4977309;28;21275;-80
2023/12/11 10:08:43;;;;;;;18.83;4.00;;;;;;;7.51;100.00;98798.69;4981999;28;20442;-79
2023/12/11 10:11:18;;;;;;;16.65;4.13;;;;;;;7.55;100.00;98797.75;4998628;28;20425;-79
2023/12/11 10:13:46;;;;;;;19.00;3.75;;;;;;;7.53;100.00;98794.56;4982936;28;20467;-80
2023/12/11 10:16:29;;;;;;;13.95;3.55;;;;;;;7.45;100.00;98798.78;4980763;28;21071;-81
2023/12/11 10:18:58;;;;;;;16.67;3.70;;;;;;;7.47;100.00;98795.78;4959544;28;20443;-79
2023/12/11 10:21:39;;;;;;;23.00;4.20;;;;;;;7.51;100.00;98790.56;4983884;28;20942;-80
2023/12/11 10:24:14;;;;;;;18.73;3.33;;;;;;;7.52;100.00;98779.44;4984775;28;20445;-80
2023/12/11 10:26:47;;;;;;;18.38;4.10;;;;;;;7.56;100.00;98779.63;4975013;28;20438;-80
2023/12/11 10:29:22;;;;;;;20.07;4.23;;;;;;;7.62;100.00;98783.81;4988863;28;20448;-81
2023/12/11 10:31:50;;;;;;;19.20;4.17;;;;;;;7.64;100.00;98782.38;4976397;28;20500;-80
2023/12/11 10:34:19;;;;;;;15.90;4.20;;;;;;;7.72;100.00;98780.88;4977028;28;20582;-81
2023/12/11 10:36:54;;;;;;;21.20;4.07;;;;;;;7.72;100.00;98778.16;4979937;28;21121;-82
2023/12/11 10:39:27;;;;;;;18.63;4.00;;;;;;;7.61;100.00;98788.44;4979513;28;20436;-81
2023/12/11 10:42:13;;;;;;;18.65;3.80;;;;;;;7.60;100.00;98792.22;4981169;28;20437;-79
2023/12/11 10:44:46;;;;;;;14.23;4.00;;;;;;;7.57;100.00;98779.31;4998258;28;20435;-80
2023/12/11 10:47:20;;;;;;;19.15;4.05;;;;;;;7.50;100.00;98792.47;4984935;28;20424;-80
2023/12/11 10:49:54;;;;;;;17.20;3.90;;;;;;;7.51;100.00;98788.66;4991728;28;20478;-80
2023/12/11 10:52:28;;;;;;;14.10;3.15;;;;;;;7.48;100.00;98787.38;4994228;28;20449;-80
2023/12/11 10:55:01;;;;;;;13.97;3.43;;;;;;;7.47;100.00;98783.06;4987289;28;20918;-79
2023/12/11 10:57:35;;;;;;;15.25;3.97;;;;;;;7.57;100.00;98779.31;4990604;28;20436;-80
2023/12/11 11:00:13;;;;;;;13.02;3.42;;;;;;;7.63;100.00;98786.19;4992446;28;20436;-80
2023/12/11 11:02:44;;;;;;;19.00;3.67;;;;;;;7.60;100.00;98769.78;4992393;28;20420;-80
2023/12/11 11:05:13;;;;;;;16.88;4.00;;;;;;;7.64;100.00;98776.97;4988169;28;20433;-79
2023/12/11 11:07:55;;;;;;;17.23;3.60;;;;;;;7.82;100.00;98771.69;4994084;28;20436;-81
2023/12/11 11:10:34;;;;;;;16.38;3.40;;;;;;;7.86;100.00;98766.44;4982358;28;21123;-79
2023/12/11 11:13:12;;;;;;;12.15;3.30;;;;;;;7.85;100.00;98767.56;4985176;28;20426;-79
2023/12/11 11:15:41;;;;;;;19.65;3.63;;;;;;;7.89;100.00;98760.44;4986813;28;21136;-79
2023/12/11 11:18:14;;;;;;;13.00;3.42;;;;;;;7.89;100.00;98761.22;4981859;28;21203;-80
2023/12/11 11:21:10;;;;;;;15.00;2.92;;;;;;;7.92;100.00;98770.63;4958714;28;20538;-80
2023/12/11 11:23:45;;;;;;;12.30;2.85;;;;;;;7.96;100.00;98768.91;4990137;28;20434;-80
2023/12/11 11:26:38;;;;;;;15.52;2.95;;;;;;;7.89;100.00;98768.56;4991450;28;20429;-80
2023/12/11 11:29:41;;;;;;;17.80;3.35;;;;;;;8.03;100.00;98774.69;4977456;28;20436;-80
2023/12/11 11:32:17;;;;;;;14.95;2.92;;;;;;;8.02;100.00;98766.88;4991576;28;20440;-78
2023/12/11 11:34:51;;;;;;;15.02;2.53;;;;;;;7.97;100.00;98774.03;4991956;28;20435;-79
2023/12/11 11:37:51;;;;;;;15.38;3.22;;;;;;;8.14;100.00;98762.47;4985355;28;21717;-80
2023/12/11 11:40:33;;;;;;;12.60;2.67;;;;;;;7.98;100.00;98769.38;4985317;28;20432;-80
2023/12/11 11:43:03;;;;;;;15.65;3.50;;;;;;;8.00;100.00;98770.69;4987649;28;20454;-80
2023/12/11 11:45:38;;;;;;;15.27;3.17;;;;;;;7.92;100.00;98776.06;4989318;28;20439;-79
2023/12/11 11:48:06;;;;;;;11.80;2.67;;;;;;;7.98;100.00;98780.22;4987796;28;22098;-78
2023/12/11 11:50:54;;;;;;;14.95;2.95;;;;;;;7.97;100.00;98782.16;4985944;28;20707;-79
2023/12/11 11:53:23;;;;;;;11.30;2.63;;;;;;;7.97;100.00;98781.34;4989034;28;20790;-82
2023/12/11 11:56:02;;;;;;;12.88;2.70;;;;;;;8.05;100.00;98783.31;4985799;28;20419;-78
2023/12/11 11:58:35;;;;;;;12.02;2.58;;;;;;;8.03;100.00;98782.81;4994158;28;21405;-81